< Typhoon 197707 1977 Season Typhoon 197709 >
Typhoon 197708 (NO-NAME)
General InformationTrack Information on Google MapsDetailed Wind Information || Disaster Info.ResourceGoogle EarthGE AnimationAtom FeedGeoJSON
Detalied Best Track (Time Zone = UTC)
Year Month Day Hour Lat. Long. Pressure (hPa) Wind (kt) Class Image Chart
1977 8 21 06 27.0 131.0 998 0 2 -- Chart
1977 8 21 12 28.0 132.5 996 0 2 -- Chart
1977 8 21 18 29.5 134.3 994 0 2 -- Chart
1977 8 22 00 30.6 136.0 992 40 3 -- Chart
1977 8 22 06 31.4 137.6 990 40 3 -- Chart
1977 8 22 12 32.0 139.1 988 40 3 -- Chart
1977 8 22 18 32.1 140.4 990 0 6 -- Chart
1977 8 23 00 32.1 142.0 990 0 6 -- Chart
1977 8 23 06 32.0 143.0 990 0 6 -- Chart
1977 8 23 12 32.0 144.0 990 0 6 -- Chart
1977 8 23 18 32.0 144.5 990 0 6 -- Chart
1977 8 24 00 32.0 145.1 994 0 6 -- Chart
1977 8 24 06 32.6 146.1 994 0 6 -- Chart
1977 8 24 12 33.0 147.0 994 0 6 -- Chart
1977 8 24 18 33.0 148.5 994 0 6 -- Chart
1977 8 25 00 33.0 150.0 994 0 6 -- Chart
1977 8 25 06 33.0 151.5 994 0 6 -- Chart
1977 8 25 12 33.0 153.0 994 0 6 -- Chart
1977 8 25 18 33.0 154.5 994 0 6 -- Chart
1977 8 26 00 32.5 155.5 996 0 6 -- Chart
1977 8 26 06 32.0 156.0 996 0 6 -- Chart
1977 8 26 12 32.0 157.0 996 0 6 -- Chart
1977 8 26 18 32.0 158.0 998 0 6 -- Chart
1977 8 27 00 32.0 159.1 1004 0 6 -- Chart
Japan Meteorological Agency Best Track Data | Correction Date : 1992-10-21
< Typhoon 197707 1977 Season Typhoon 197709 >

Help